createdAt,value
2018-12-29T00:01:03.523Z,2.80
2018-12-29T00:04:07.862Z,2.76
2018-12-29T00:07:12.394Z,2.78
2018-12-29T00:10:16.658Z,2.87
2018-12-29T00:13:20.972Z,2.82
2018-12-29T00:16:25.359Z,2.87
2018-12-29T00:19:29.777Z,2.85
2018-12-29T00:22:34.118Z,2.82
2018-12-29T00:25:38.417Z,2.86
2018-12-29T00:28:42.690Z,2.88
2018-12-29T00:31:47.014Z,2.90
2018-12-29T00:34:51.318Z,2.98
2018-12-29T00:37:55.676Z,3.00
2018-12-29T00:40:59.998Z,2.97
2018-12-29T00:44:04.289Z,2.93
2018-12-29T00:47:08.719Z,3.00
2018-12-29T00:50:13.014Z,2.99
2018-12-29T00:53:17.380Z,2.97
2018-12-29T00:56:21.693Z,3.02
2018-12-29T00:59:26.040Z,3.11
2018-12-29T01:02:30.370Z,3.02
2018-12-29T01:05:34.658Z,3.02
2018-12-29T01:08:39.017Z,3.06
2018-12-29T01:11:43.349Z,3.06
2018-12-29T01:14:47.644Z,3.12
2018-12-29T01:17:51.913Z,3.16
2018-12-29T01:20:56.298Z,3.16
2018-12-29T01:24:00.609Z,3.13
2018-12-29T01:27:05.025Z,3.12
2018-12-29T01:30:09.378Z,3.15
2018-12-29T01:33:13.718Z,3.17
2018-12-29T01:36:18.044Z,3.12
2018-12-29T01:39:22.435Z,3.14
2018-12-29T01:42:26.819Z,3.13
2018-12-29T01:45:31.098Z,3.17
2018-12-29T01:48:35.464Z,3.25
2018-12-29T01:51:39.765Z,3.24
2018-12-29T01:54:44.083Z,3.18
2018-12-29T01:57:48.404Z,3.23
2018-12-29T02:00:52.698Z,3.20
2018-12-29T02:03:57.070Z,3.21
2018-12-29T02:07:02.391Z,3.16
2018-12-29T02:10:06.862Z,3.25
2018-12-29T02:13:11.153Z,3.19
2018-12-29T02:16:15.438Z,3.23
2018-12-29T02:19:19.759Z,3.29
2018-12-29T02:22:24.064Z,3.24
2018-12-29T02:25:28.423Z,3.25
2018-12-29T02:28:32.724Z,3.20
2018-12-29T02:31:37.087Z,3.23
2018-12-29T02:34:41.386Z,3.26
2018-12-29T02:37:45.759Z,3.32
2018-12-29T02:40:50.018Z,3.24
2018-12-29T02:43:54.325Z,3.25
2018-12-29T02:46:58.679Z,3.33
2018-12-29T02:50:03.005Z,3.26
2018-12-29T02:53:07.363Z,3.30
2018-12-29T02:56:11.780Z,3.29
2018-12-29T02:59:16.062Z,3.27
2018-12-29T03:02:20.394Z,3.23
2018-12-29T03:05:24.674Z,3.31
2018-12-29T03:08:28.962Z,3.31
2018-12-29T03:11:33.213Z,3.30
2018-12-29T03:14:37.531Z,3.32
2018-12-29T03:17:41.898Z,3.35
2018-12-29T03:20:46.190Z,3.32
2018-12-29T03:23:50.608Z,3.32
2018-12-29T03:26:54.934Z,3.30
2018-12-29T03:29:59.303Z,3.28
2018-12-29T03:33:03.600Z,3.41
2018-12-29T03:36:07.975Z,3.41
2018-12-29T03:39:12.333Z,3.36
2018-12-29T03:42:16.634Z,3.34
2018-12-29T03:45:20.964Z,3.35
2018-12-29T03:48:25.280Z,3.33
2018-12-29T03:51:29.612Z,3.42
2018-12-29T03:54:33.900Z,3.44
2018-12-29T03:57:38.265Z,3.52
2018-12-29T04:00:42.529Z,3.42
2018-12-29T04:03:46.947Z,3.44
2018-12-29T04:06:51.258Z,3.49
2018-12-29T04:09:56.163Z,3.49
2018-12-29T04:13:01.559Z,3.56
2018-12-29T04:16:05.842Z,3.59
2018-12-29T04:19:10.233Z,3.58
2018-12-29T04:22:14.659Z,3.62
2018-12-29T04:25:22.814Z,3.56
2018-12-29T04:28:27.085Z,3.60
2018-12-29T04:31:31.425Z,3.58
2018-12-29T04:34:35.718Z,3.58
2018-12-29T04:37:40.009Z,3.56
2018-12-29T04:40:44.313Z,3.59
2018-12-29T04:43:48.575Z,3.55
2018-12-29T04:46:52.875Z,3.68
2018-12-29T04:49:57.213Z,3.57
2018-12-29T04:53:01.549Z,3.59
2018-12-29T04:56:05.868Z,3.63
2018-12-29T04:59:11.337Z,3.64
2018-12-29T05:02:15.778Z,3.70
2018-12-29T05:05:20.189Z,3.64
2018-12-29T05:08:24.566Z,3.61
2018-12-29T05:11:29.018Z,3.62
2018-12-29T05:14:33.294Z,3.59
2018-12-29T05:17:37.750Z,3.72
2018-12-29T05:20:42.108Z,3.64
2018-12-29T05:23:46.484Z,3.63
2018-12-29T05:26:50.748Z,3.70
2018-12-29T05:29:55.094Z,3.69
2018-12-29T05:32:59.458Z,3.80
2018-12-29T05:36:03.716Z,3.79
2018-12-29T05:39:08.094Z,3.75
2018-12-29T05:42:12.403Z,3.82
2018-12-29T05:45:16.761Z,3.77
2018-12-29T05:48:21.113Z,3.80
2018-12-29T05:51:25.379Z,3.79
2018-12-29T05:54:29.713Z,3.76
2018-12-29T05:57:34.174Z,3.79
2018-12-29T06:00:38.508Z,3.65
2018-12-29T06:03:42.794Z,3.64
2018-12-29T06:06:47.150Z,3.58
2018-12-29T06:09:51.470Z,3.57
2018-12-29T06:12:55.798Z,3.63
2018-12-29T06:16:00.077Z,3.65
2018-12-29T06:19:04.369Z,3.70
2018-12-29T06:22:08.819Z,3.73
2018-12-29T06:25:13.170Z,3.83
2018-12-29T06:28:17.434Z,3.78
2018-12-29T06:31:21.763Z,3.84
2018-12-29T06:34:26.109Z,3.84
2018-12-29T06:37:30.447Z,3.83
2018-12-29T06:40:34.739Z,3.93
2018-12-29T06:43:39.013Z,3.92
2018-12-29T06:46:43.365Z,3.92
2018-12-29T06:49:47.650Z,3.94
2018-12-29T06:52:51.998Z,3.89
2018-12-29T06:55:56.338Z,3.93
2018-12-29T06:59:00.703Z,3.97
2018-12-29T07:02:05.126Z,3.91
2018-12-29T07:05:09.502Z,3.97
2018-12-29T07:08:13.770Z,3.94
2018-12-29T07:11:18.128Z,3.91
2018-12-29T07:14:22.419Z,4.01
2018-12-29T07:17:26.769Z,4.01
2018-12-29T07:20:31.032Z,3.95
2018-12-29T07:23:35.421Z,3.97
2018-12-29T07:26:39.759Z,3.97
2018-12-29T07:29:44.069Z,4.01
2018-12-29T07:32:48.405Z,4.13
2018-12-29T07:35:52.780Z,4.05
2018-12-29T07:38:57.057Z,4.10
2018-12-29T07:42:01.423Z,4.14
2018-12-29T07:45:05.867Z,4.12
2018-12-29T07:48:10.258Z,4.16
2018-12-29T07:51:14.541Z,4.13
2018-12-29T07:54:18.889Z,4.24
2018-12-29T07:57:23.075Z,4.24
2018-12-29T08:00:27.377Z,4.29
2018-12-29T08:03:31.738Z,4.28
2018-12-29T08:06:36.039Z,4.33
2018-12-29T08:09:40.416Z,4.34
2018-12-29T08:12:44.746Z,4.41
2018-12-29T08:15:49.089Z,4.43
2018-12-29T08:18:53.437Z,4.39
2018-12-29T08:21:57.713Z,4.41
2018-12-29T08:25:02.092Z,4.50
2018-12-29T08:28:06.344Z,4.52
2018-12-29T08:31:10.703Z,4.54
2018-12-29T08:34:15.093Z,4.61
2018-12-29T08:37:19.396Z,4.61
2018-12-29T08:40:24.916Z,4.62
2018-12-29T08:43:29.220Z,4.75
2018-12-29T08:46:33.533Z,4.61
2018-12-29T08:49:37.858Z,4.68
2018-12-29T08:52:42.157Z,4.77
2018-12-29T08:55:46.452Z,4.72
2018-12-29T08:58:50.752Z,4.83
2018-12-29T09:01:55.151Z,4.89
2018-12-29T09:04:59.508Z,5.00
2018-12-29T09:08:03.799Z,4.90
2018-12-29T09:11:08.118Z,5.00
2018-12-29T09:14:12.458Z,4.93
2018-12-29T09:17:16.788Z,5.05
2018-12-29T09:20:21.114Z,5.05
2018-12-29T09:23:25.421Z,5.12
2018-12-29T09:26:29.732Z,5.01
2018-12-29T09:29:34.056Z,5.04
2018-12-29T09:32:38.374Z,5.22
2018-12-29T09:35:42.697Z,5.18
2018-12-29T09:38:46.968Z,5.37
2018-12-29T09:41:51.426Z,5.36
2018-12-29T09:44:55.901Z,5.38
2018-12-29T09:48:00.198Z,5.32
2018-12-29T09:51:04.568Z,5.36
2018-12-29T09:54:08.813Z,5.34
2018-12-29T09:57:13.137Z,5.37
2018-12-29T10:00:17.457Z,5.39
2018-12-29T10:03:21.782Z,5.35
2018-12-29T10:06:26.054Z,5.40
2018-12-29T10:09:30.393Z,5.37
2018-12-29T10:12:34.759Z,5.45
2018-12-29T10:15:39.233Z,5.31
2018-12-29T10:18:43.501Z,5.34
2018-12-29T10:21:47.807Z,5.46
2018-12-29T10:24:52.161Z,5.48
2018-12-29T10:27:56.497Z,5.36
2018-12-29T10:31:00.797Z,5.34
2018-12-29T10:34:05.182Z,5.28
2018-12-29T10:37:09.458Z,5.28
2018-12-29T10:40:13.763Z,5.28
2018-12-29T10:43:18.105Z,5.20
2018-12-29T10:46:22.402Z,5.35
2018-12-29T10:49:26.788Z,5.32
2018-12-29T10:52:31.082Z,5.28
2018-12-29T10:55:35.403Z,5.25
2018-12-29T10:58:39.757Z,5.36
2018-12-29T11:01:44.037Z,5.38
2018-12-29T11:04:48.362Z,5.37
2018-12-29T11:07:52.691Z,5.31
2018-12-29T11:10:57.056Z,5.32
2018-12-29T11:14:01.480Z,5.34
2018-12-29T11:17:05.797Z,5.41
2018-12-29T11:20:10.141Z,5.43
2018-12-29T11:23:14.477Z,5.45
2018-12-29T11:26:18.829Z,5.40
2018-12-29T11:29:23.155Z,5.43
2018-12-29T11:32:27.522Z,5.53
2018-12-29T11:35:31.886Z,5.42
2018-12-29T11:38:36.208Z,5.52
2018-12-29T11:41:40.526Z,5.42
2018-12-29T11:44:44.866Z,5.54
2018-12-29T11:47:50.007Z,5.50
2018-12-29T11:50:54.515Z,5.54
2018-12-29T11:53:58.900Z,5.51
2018-12-29T11:57:03.298Z,5.51
2018-12-29T12:00:09.135Z,5.53
2018-12-29T12:03:13.582Z,5.46
2018-12-29T12:06:17.885Z,5.53
2018-12-29T12:09:22.286Z,5.51
2018-12-29T12:12:26.660Z,5.63
2018-12-29T12:15:31.026Z,5.72
2018-12-29T12:18:35.400Z,5.61
2018-12-29T12:21:39.662Z,5.64
2018-12-29T12:24:45.250Z,5.61
2018-12-29T12:27:49.620Z,5.64
2018-12-29T12:30:56.346Z,5.68
2018-12-29T12:34:01.047Z,5.71
2018-12-29T12:37:05.721Z,5.78
2018-12-29T12:40:10.136Z,5.69
2018-12-29T12:43:14.625Z,5.71
2018-12-29T12:46:19.317Z,5.72
2018-12-29T12:49:23.917Z,5.90
2018-12-29T12:52:28.341Z,5.92
2018-12-29T12:55:32.772Z,5.85
2018-12-29T12:58:37.600Z,5.94
2018-12-29T13:01:42.196Z,5.95
2018-12-29T13:04:46.582Z,5.99
2018-12-29T13:07:50.944Z,5.95
2018-12-29T13:10:55.559Z,6.05
2018-12-29T13:14:00.132Z,6.02
2018-12-29T13:17:04.561Z,6.06
2018-12-29T13:20:08.880Z,6.04
2018-12-29T13:23:13.208Z,6.13
2018-12-29T13:26:17.602Z,6.12
2018-12-29T13:29:21.873Z,6.17
2018-12-29T13:32:26.264Z,6.14
2018-12-29T13:35:30.636Z,6.20
2018-12-29T13:38:34.940Z,6.28
2018-12-29T13:41:39.211Z,6.19
2018-12-29T13:44:43.751Z,6.29
2018-12-29T13:47:48.177Z,6.29
2018-12-29T13:50:52.479Z,6.31
2018-12-29T13:53:56.805Z,6.31
2018-12-29T13:57:01.696Z,6.37
2018-12-29T14:00:06.245Z,6.38
2018-12-29T14:03:10.514Z,6.39
2018-12-29T14:06:14.890Z,6.34
2018-12-29T14:09:19.230Z,6.34
2018-12-29T14:12:23.605Z,6.39
2018-12-29T14:15:27.994Z,6.39
2018-12-29T14:18:32.308Z,6.42
2018-12-29T14:21:36.709Z,6.44
2018-12-29T14:24:41.081Z,6.43
2018-12-29T14:27:45.404Z,6.45
2018-12-29T14:30:49.800Z,6.46
2018-12-29T14:33:54.145Z,6.43
2018-12-29T14:36:58.435Z,6.44
2018-12-29T14:40:02.835Z,6.51
2018-12-29T14:43:07.515Z,6.53
2018-12-29T14:46:11.973Z,6.55
2018-12-29T14:49:16.356Z,6.54
2018-12-29T14:52:20.765Z,6.50
2018-12-29T14:55:25.154Z,6.50
2018-12-29T14:58:29.536Z,6.53
2018-12-29T15:01:33.909Z,6.51
2018-12-29T15:04:38.351Z,6.52
2018-12-29T15:07:42.638Z,6.54
2018-12-29T15:10:47.054Z,6.55
2018-12-29T15:13:51.619Z,6.52
2018-12-29T15:16:57.560Z,6.53
2018-12-29T15:20:01.909Z,6.54
2018-12-29T15:23:08.356Z,6.57
2018-12-29T15:26:12.755Z,6.50
2018-12-29T15:29:17.161Z,6.42
2018-12-29T15:32:21.439Z,6.26
2018-12-29T15:35:26.001Z,6.25
2018-12-29T15:38:30.741Z,6.28
2018-12-29T15:41:35.225Z,6.19
2018-12-29T15:44:39.968Z,6.26
2018-12-29T15:47:44.661Z,6.12
2018-12-29T15:50:49.034Z,6.11
2018-12-29T15:53:53.430Z,6.11
2018-12-29T15:56:58.148Z,6.10
2018-12-29T16:00:02.840Z,6.15
2018-12-29T16:03:07.225Z,6.14
2018-12-29T16:06:11.928Z,6.19
2018-12-29T16:09:16.336Z,6.19
2018-12-29T16:12:21.025Z,6.17
2018-12-29T16:15:25.472Z,6.14
2018-12-29T16:18:29.972Z,6.20
2018-12-29T16:21:34.403Z,6.16
2018-12-29T16:24:38.752Z,6.14
2018-12-29T16:27:43.350Z,6.15
2018-12-29T16:30:48.594Z,6.21
2018-12-29T16:33:53.850Z,6.15
2018-12-29T16:36:58.508Z,6.20
2018-12-29T16:40:03.245Z,6.13
2018-12-29T16:43:07.973Z,6.13
2018-12-29T16:46:12.354Z,6.19
2018-12-29T16:49:16.769Z,6.14
2018-12-29T16:52:21.180Z,6.11
2018-12-29T16:55:25.621Z,6.11
2018-12-29T16:58:29.985Z,6.12
2018-12-29T17:01:34.574Z,6.12
2018-12-29T17:04:38.946Z,6.10
2018-12-29T17:07:43.357Z,6.17
2018-12-29T17:10:47.760Z,6.16
2018-12-29T17:13:52.158Z,6.14
2018-12-29T17:16:56.569Z,6.15
2018-12-29T17:20:00.979Z,6.19
2018-12-29T17:23:05.593Z,6.21
2018-12-29T17:26:10.230Z,6.22
2018-12-29T17:29:14.692Z,6.17
2018-12-29T17:32:19.126Z,6.24
2018-12-29T17:35:23.496Z,6.25
2018-12-29T17:38:27.976Z,6.30
2018-12-29T17:41:32.414Z,6.35
2018-12-29T17:44:36.840Z,6.34
2018-12-29T17:47:41.275Z,6.33
2018-12-29T17:50:45.671Z,6.31
2018-12-29T17:53:50.084Z,6.43
2018-12-29T17:56:54.486Z,6.45
2018-12-29T17:59:58.859Z,6.41
2018-12-29T18:03:03.243Z,6.44
2018-12-29T18:06:07.696Z,6.46
2018-12-29T18:09:12.026Z,6.50
2018-12-29T18:12:16.442Z,6.57
2018-12-29T18:15:21.181Z,6.53
2018-12-29T18:18:25.912Z,6.56
2018-12-29T18:21:30.314Z,6.63
2018-12-29T18:24:34.634Z,6.63
2018-12-29T18:27:39.060Z,6.59
2018-12-29T18:30:43.453Z,6.63
2018-12-29T18:33:48.281Z,6.66
2018-12-29T18:36:52.683Z,6.67
2018-12-29T18:39:57.060Z,6.66
2018-12-29T18:43:01.415Z,6.74
2018-12-29T18:46:06.009Z,6.71
2018-12-29T18:49:10.378Z,6.71
2018-12-29T18:52:14.664Z,6.81
2018-12-29T18:55:19.061Z,6.80
2018-12-29T18:58:23.797Z,6.81
2018-12-29T19:01:28.251Z,6.84
2018-12-29T19:04:34.998Z,6.88
2018-12-29T19:07:40.184Z,6.91
2018-12-29T19:10:44.861Z,6.96
2018-12-29T19:13:51.502Z,6.93
2018-12-29T19:16:55.961Z,6.96
2018-12-29T19:20:00.709Z,6.95
2018-12-29T19:23:05.283Z,6.96
2018-12-29T19:26:09.737Z,6.99
2018-12-29T19:29:14.323Z,7.04
2018-12-29T19:32:18.694Z,7.05
2018-12-29T19:35:23.637Z,7.08
2018-12-29T19:38:31.016Z,7.10
2018-12-29T19:41:35.438Z,7.19
2018-12-29T19:44:40.079Z,7.22
2018-12-29T19:47:44.535Z,7.23
2018-12-29T19:50:49.099Z,7.27
2018-12-29T19:53:53.732Z,7.28
2018-12-29T19:56:58.158Z,7.34
2018-12-29T20:00:02.693Z,7.28
2018-12-29T20:03:07.443Z,7.30
2018-12-29T20:06:13.203Z,7.34
2018-12-29T20:09:17.618Z,7.41
2018-12-29T20:12:21.988Z,7.48
2018-12-29T20:15:26.392Z,7.53
2018-12-29T20:18:30.777Z,7.52
2018-12-29T20:21:35.513Z,7.61
2018-12-29T20:24:39.954Z,7.56
2018-12-29T20:27:44.292Z,7.56
2018-12-29T20:30:48.614Z,7.50
2018-12-29T20:33:52.899Z,7.53
2018-12-29T20:36:57.413Z,7.47
2018-12-29T20:40:01.858Z,7.47
2018-12-29T20:43:06.263Z,7.46
2018-12-29T20:46:10.646Z,7.41
2018-12-29T20:49:15.018Z,7.45
2018-12-29T20:52:19.402Z,7.46
2018-12-29T20:55:23.747Z,7.44
2018-12-29T20:58:28.175Z,7.42
2018-12-29T21:01:32.624Z,7.43
2018-12-29T21:04:37.154Z,7.40
2018-12-29T21:07:41.515Z,7.39
2018-12-29T21:10:45.912Z,7.29
2018-12-29T21:13:50.316Z,7.30
2018-12-29T21:16:54.647Z,7.34
2018-12-29T21:19:59.086Z,7.22
2018-12-29T21:23:03.498Z,7.19
2018-12-29T21:26:07.906Z,7.04
2018-12-29T21:29:12.330Z,7.11
2018-12-29T21:32:16.682Z,6.95
2018-12-29T21:35:21.309Z,6.88
2018-12-29T21:38:25.759Z,6.90
2018-12-29T21:41:30.128Z,6.85
2018-12-29T21:44:34.543Z,6.90
2018-12-29T21:47:38.882Z,6.88
2018-12-29T21:50:43.169Z,6.88
2018-12-29T21:53:47.579Z,6.94
2018-12-29T21:56:51.927Z,6.93
2018-12-29T21:59:56.322Z,6.94
2018-12-29T22:03:00.694Z,6.91
2018-12-29T22:06:05.040Z,6.91
2018-12-29T22:09:09.416Z,6.89
2018-12-29T22:12:13.789Z,6.81
2018-12-29T22:15:18.099Z,6.79
2018-12-29T22:18:22.494Z,6.81
2018-12-29T22:21:26.838Z,6.80
2018-12-29T22:24:31.232Z,6.84
2018-12-29T22:27:36.056Z,6.79
2018-12-29T22:30:40.508Z,6.83
2018-12-29T22:33:44.857Z,6.86
2018-12-29T22:36:49.165Z,6.84
2018-12-29T22:39:53.514Z,6.85
2018-12-29T22:42:57.889Z,6.93
2018-12-29T22:46:02.266Z,7.04
2018-12-29T22:49:06.953Z,6.99
2018-12-29T22:52:11.362Z,6.99
2018-12-29T22:55:15.699Z,6.94
2018-12-29T22:58:20.123Z,6.99
2018-12-29T23:01:24.777Z,6.99
2018-12-29T23:04:29.236Z,7.00
2018-12-29T23:07:33.588Z,6.94
2018-12-29T23:10:37.978Z,6.93
2018-12-29T23:13:42.626Z,6.98
2018-12-29T23:16:47.026Z,6.98
2018-12-29T23:19:51.451Z,6.98
2018-12-29T23:22:56.115Z,6.90
2018-12-29T23:26:00.519Z,6.87
2018-12-29T23:29:04.928Z,6.90
2018-12-29T23:32:09.364Z,6.91
2018-12-29T23:35:14.068Z,6.91
2018-12-29T23:38:18.449Z,6.89
2018-12-29T23:41:22.716Z,6.89
2018-12-29T23:44:27.399Z,6.88
2018-12-29T23:47:31.761Z,6.85
2018-12-29T23:50:38.623Z,6.81
2018-12-29T23:53:43.236Z,6.83
2018-12-29T23:56:47.862Z,6.80
2018-12-29T23:59:52.608Z,6.82
